sensor_id;sensor_type;location;lat;lon;timestamp;P1;durP1;ratioP1;P2;durP2;ratioP2
22468;SDS011;11401;50.792;4.352;2024-01-15T00:00:39;23.95;;;14.07;;
22468;SDS011;11401;50.792;4.352;2024-01-15T00:03:07;23.10;;;13.57;;
22468;SDS011;11401;50.792;4.352;2024-01-15T00:05:34;25.25;;;14.00;;
22468;SDS011;11401;50.792;4.352;2024-01-15T00:08:02;21.88;;;13.45;;
22468;SDS011;11401;50.792;4.352;2024-01-15T00:10:29;20.45;;;12.65;;
22468;SDS011;11401;50.792;4.352;2024-01-15T00:12:56;20.75;;;12.85;;
22468;SDS011;11401;50.792;4.352;2024-01-15T00:15:23;20.33;;;12.77;;
22468;SDS011;11401;50.792;4.352;2024-01-15T00:17:51;18.90;;;11.48;;
22468;SDS011;11401;50.792;4.352;2024-01-15T00:20:18;20.25;;;12.05;;
22468;SDS011;11401;50.792;4.352;2024-01-15T00:22:45;19.48;;;12.02;;
22468;SDS011;11401;50.792;4.352;2024-01-15T00:25:12;20.67;;;11.80;;
22468;SDS011;11401;50.792;4.352;2024-01-15T00:27:39;16.13;;;11.10;;
22468;SDS011;11401;50.792;4.352;2024-01-15T00:30:07;19.83;;;11.15;;
22468;SDS011;11401;50.792;4.352;2024-01-15T00:32:35;22.23;;;11.70;;
22468;SDS011;11401;50.792;4.352;2024-01-15T00:35:02;19.35;;;11.50;;
22468;SDS011;11401;50.792;4.352;2024-01-15T00:37:30;16.65;;;11.40;;
22468;SDS011;11401;50.792;4.352;2024-01-15T00:39:57;17.17;;;10.57;;
22468;SDS011;11401;50.792;4.352;2024-01-15T00:42:24;16.70;;;10.20;;
22468;SDS011;11401;50.792;4.352;2024-01-15T00:44:51;14.88;;;9.80;;
22468;SDS011;11401;50.792;4.352;2024-01-15T00:47:18;14.40;;;9.52;;
22468;SDS011;11401;50.792;4.352;2024-01-15T00:49:45;15.40;;;9.45;;
22468;SDS011;11401;50.792;4.352;2024-01-15T00:52:12;13.65;;;9.40;;
22468;SDS011;11401;50.792;4.352;2024-01-15T00:54:39;13.52;;;9.02;;
22468;SDS011;11401;50.792;4.352;2024-01-15T00:57:06;14.18;;;9.18;;
22468;SDS011;11401;50.792;4.352;2024-01-15T00:59:33;13.50;;;8.52;;
22468;SDS011;11401;50.792;4.352;2024-01-15T01:02:00;14.25;;;9.02;;
22468;SDS011;11401;50.792;4.352;2024-01-15T01:04:29;14.40;;;8.90;;
22468;SDS011;11401;50.792;4.352;2024-01-15T01:06:56;17.60;;;9.65;;
22468;SDS011;11401;50.792;4.352;2024-01-15T01:09:23;14.20;;;8.38;;
22468;SDS011;11401;50.792;4.352;2024-01-15T01:11:51;12.20;;;8.77;;
22468;SDS011;11401;50.792;4.352;2024-01-15T01:14:18;9.73;;;7.20;;
22468;SDS011;11401;50.792;4.352;2024-01-15T01:16:44;11.60;;;8.15;;
22468;SDS011;11401;50.792;4.352;2024-01-15T01:19:11;11.75;;;7.97;;
22468;SDS011;11401;50.792;4.352;2024-01-15T01:21:39;12.05;;;8.13;;
22468;SDS011;11401;50.792;4.352;2024-01-15T01:24:06;12.93;;;8.32;;
22468;SDS011;11401;50.792;4.352;2024-01-15T01:26:33;10.60;;;7.82;;
22468;SDS011;11401;50.792;4.352;2024-01-15T01:29:00;12.75;;;8.40;;
22468;SDS011;11401;50.792;4.352;2024-01-15T01:31:28;10.02;;;7.75;;
22468;SDS011;11401;50.792;4.352;2024-01-15T01:33:56;9.32;;;7.43;;
22468;SDS011;11401;50.792;4.352;2024-01-15T01:36:23;11.50;;;7.40;;
22468;SDS011;11401;50.792;4.352;2024-01-15T01:38:51;10.07;;;7.13;;
22468;SDS011;11401;50.792;4.352;2024-01-15T01:41:18;12.35;;;8.30;;
22468;SDS011;11401;50.792;4.352;2024-01-15T01:43:45;11.27;;;7.63;;
22468;SDS011;11401;50.792;4.352;2024-01-15T01:46:12;9.68;;;6.93;;
22468;SDS011;11401;50.792;4.352;2024-01-15T01:48:39;9.95;;;7.13;;
22468;SDS011;11401;50.792;4.352;2024-01-15T01:51:06;11.02;;;7.50;;
22468;SDS011;11401;50.792;4.352;2024-01-15T01:53:34;11.57;;;7.43;;
22468;SDS011;11401;50.792;4.352;2024-01-15T01:56:03;9.52;;;6.65;;
22468;SDS011;11401;50.792;4.352;2024-01-15T01:58:31;9.20;;;7.10;;
22468;SDS011;11401;50.792;4.352;2024-01-15T02:00:59;9.68;;;6.75;;
22468;SDS011;11401;50.792;4.352;2024-01-15T02:03:27;11.00;;;6.63;;
22468;SDS011;11401;50.792;4.352;2024-01-15T02:05:55;9.38;;;6.78;;
22468;SDS011;11401;50.792;4.352;2024-01-15T02:08:23;8.07;;;6.57;;
22468;SDS011;11401;50.792;4.352;2024-01-15T02:10:50;8.70;;;6.10;;
22468;SDS011;11401;50.792;4.352;2024-01-15T02:13:17;8.30;;;6.20;;
22468;SDS011;11401;50.792;4.352;2024-01-15T02:15:45;6.22;;;5.20;;
22468;SDS011;11401;50.792;4.352;2024-01-15T02:18:12;6.78;;;5.85;;
22468;SDS011;11401;50.792;4.352;2024-01-15T02:20:39;9.25;;;5.90;;
22468;SDS011;11401;50.792;4.352;2024-01-15T02:23:13;9.05;;;5.80;;
22468;SDS011;11401;50.792;4.352;2024-01-15T02:25:44;6.53;;;5.18;;
22468;SDS011;11401;50.792;4.352;2024-01-15T02:28:16;7.43;;;5.47;;
22468;SDS011;11401;50.792;4.352;2024-01-15T02:30:44;8.13;;;5.25;;
22468;SDS011;11401;50.792;4.352;2024-01-15T02:33:12;7.22;;;4.88;;
22468;SDS011;11401;50.792;4.352;2024-01-15T02:35:40;5.97;;;4.68;;
22468;SDS011;11401;50.792;4.352;2024-01-15T02:38:07;7.10;;;5.63;;
22468;SDS011;11401;50.792;4.352;2024-01-15T02:40:35;7.75;;;5.53;;
22468;SDS011;11401;50.792;4.352;2024-01-15T02:43:03;8.20;;;5.88;;
22468;SDS011;11401;50.792;4.352;2024-01-15T02:45:31;6.47;;;5.07;;
22468;SDS011;11401;50.792;4.352;2024-01-15T02:47:58;6.55;;;5.25;;
22468;SDS011;11401;50.792;4.352;2024-01-15T02:50:25;8.30;;;5.15;;
22468;SDS011;11401;50.792;4.352;2024-01-15T02:52:52;8.70;;;5.18;;
22468;SDS011;11401;50.792;4.352;2024-01-15T02:55:19;6.07;;;5.47;;
22468;SDS011;11401;50.792;4.352;2024-01-15T02:57:46;8.45;;;5.60;;
22468;SDS011;11401;50.792;4.352;2024-01-15T03:00:14;7.70;;;5.75;;
22468;SDS011;11401;50.792;4.352;2024-01-15T03:02:41;9.52;;;5.68;;
22468;SDS011;11401;50.792;4.352;2024-01-15T03:05:14;8.32;;;6.47;;
22468;SDS011;11401;50.792;4.352;2024-01-15T03:07:41;8.75;;;5.70;;
22468;SDS011;11401;50.792;4.352;2024-01-15T03:10:08;6.90;;;5.72;;
22468;SDS011;11401;50.792;4.352;2024-01-15T03:12:36;10.98;;;6.93;;
22468;SDS011;11401;50.792;4.352;2024-01-15T03:15:03;10.57;;;6.47;;
22468;SDS011;11401;50.792;4.352;2024-01-15T03:17:31;8.48;;;6.20;;
22468;SDS011;11401;50.792;4.352;2024-01-15T03:19:58;11.90;;;7.35;;
22468;SDS011;11401;50.792;4.352;2024-01-15T03:22:26;9.55;;;6.32;;
22468;SDS011;11401;50.792;4.352;2024-01-15T03:24:53;8.65;;;6.68;;
22468;SDS011;11401;50.792;4.352;2024-01-15T03:27:20;8.93;;;6.60;;
22468;SDS011;11401;50.792;4.352;2024-01-15T03:29:47;10.65;;;6.35;;
22468;SDS011;11401;50.792;4.352;2024-01-15T03:32:14;13.02;;;7.95;;
22468;SDS011;11401;50.792;4.352;2024-01-15T03:34:43;11.27;;;7.05;;
22468;SDS011;11401;50.792;4.352;2024-01-15T03:37:10;13.05;;;7.15;;
22468;SDS011;11401;50.792;4.352;2024-01-15T03:39:37;10.60;;;7.55;;
22468;SDS011;11401;50.792;4.352;2024-01-15T03:42:04;9.98;;;7.88;;
22468;SDS011;11401;50.792;4.352;2024-01-15T03:44:33;13.45;;;7.90;;
22468;SDS011;11401;50.792;4.352;2024-01-15T03:47:01;10.88;;;7.07;;
22468;SDS011;11401;50.792;4.352;2024-01-15T03:49:27;11.35;;;8.07;;
22468;SDS011;11401;50.792;4.352;2024-01-15T03:51:55;11.85;;;7.88;;
22468;SDS011;11401;50.792;4.352;2024-01-15T03:54:22;11.88;;;8.10;;
22468;SDS011;11401;50.792;4.352;2024-01-15T03:56:49;10.65;;;7.95;;
22468;SDS011;11401;50.792;4.352;2024-01-15T03:59:16;12.65;;;8.13;;
22468;SDS011;11401;50.792;4.352;2024-01-15T04:01:48;12.07;;;7.90;;
22468;SDS011;11401;50.792;4.352;2024-01-15T04:04:16;12.55;;;8.10;;
22468;SDS011;11401;50.792;4.352;2024-01-15T04:06:44;12.07;;;7.45;;
22468;SDS011;11401;50.792;4.352;2024-01-15T04:09:12;11.20;;;8.80;;
22468;SDS011;11401;50.792;4.352;2024-01-15T04:11:40;11.90;;;8.43;;
22468;SDS011;11401;50.792;4.352;2024-01-15T04:14:07;15.45;;;9.07;;
22468;SDS011;11401;50.792;4.352;2024-01-15T04:16:34;13.45;;;8.35;;
22468;SDS011;11401;50.792;4.352;2024-01-15T04:19:03;12.13;;;8.48;;
22468;SDS011;11401;50.792;4.352;2024-01-15T04:21:30;12.25;;;8.38;;
22468;SDS011;11401;50.792;4.352;2024-01-15T04:23:57;14.65;;;10.13;;
22468;SDS011;11401;50.792;4.352;2024-01-15T04:26:25;12.88;;;9.40;;
22468;SDS011;11401;50.792;4.352;2024-01-15T04:28:52;11.40;;;9.02;;
22468;SDS011;11401;50.792;4.352;2024-01-15T04:31:23;9.75;;;7.68;;
22468;SDS011;11401;50.792;4.352;2024-01-15T04:33:51;12.82;;;8.68;;
22468;SDS011;11401;50.792;4.352;2024-01-15T04:36:19;10.63;;;8.43;;
22468;SDS011;11401;50.792;4.352;2024-01-15T04:38:46;16.38;;;9.85;;
22468;SDS011;11401;50.792;4.352;2024-01-15T04:41:14;12.30;;;8.82;;
22468;SDS011;11401;50.792;4.352;2024-01-15T04:43:42;12.70;;;8.43;;
22468;SDS011;11401;50.792;4.352;2024-01-15T04:46:09;13.73;;;7.65;;
22468;SDS011;11401;50.792;4.352;2024-01-15T04:48:36;17.67;;;8.90;;
22468;SDS011;11401;50.792;4.352;2024-01-15T04:51:04;11.95;;;8.52;;
22468;SDS011;11401;50.792;4.352;2024-01-15T04:53:33;10.77;;;8.52;;
22468;SDS011;11401;50.792;4.352;2024-01-15T04:56:01;10.50;;;7.53;;
22468;SDS011;11401;50.792;4.352;2024-01-15T04:58:28;12.82;;;8.00;;
22468;SDS011;11401;50.792;4.352;2024-01-15T05:00:55;9.32;;;6.70;;
22468;SDS011;11401;50.792;4.352;2024-01-15T05:03:24;8.98;;;6.65;;
22468;SDS011;11401;50.792;4.352;2024-01-15T05:05:51;9.80;;;6.47;;
22468;SDS011;11401;50.792;4.352;2024-01-15T05:08:18;9.68;;;6.43;;
22468;SDS011;11401;50.792;4.352;2024-01-15T05:10:45;10.05;;;6.28;;
22468;SDS011;11401;50.792;4.352;2024-01-15T05:13:12;7.68;;;5.72;;
22468;SDS011;11401;50.792;4.352;2024-01-15T05:15:39;9.35;;;6.50;;
22468;SDS011;11401;50.792;4.352;2024-01-15T05:18:06;8.57;;;5.75;;
22468;SDS011;11401;50.792;4.352;2024-01-15T05:20:34;6.38;;;5.30;;
22468;SDS011;11401;50.792;4.352;2024-01-15T05:23:01;7.47;;;5.63;;
22468;SDS011;11401;50.792;4.352;2024-01-15T05:25:28;6.63;;;5.38;;
22468;SDS011;11401;50.792;4.352;2024-01-15T05:27:55;6.68;;;5.22;;
22468;SDS011;11401;50.792;4.352;2024-01-15T05:30:22;6.35;;;5.15;;
22468;SDS011;11401;50.792;4.352;2024-01-15T05:32:50;6.15;;;5.13;;
22468;SDS011;11401;50.792;4.352;2024-01-15T05:35:17;9.70;;;5.13;;
22468;SDS011;11401;50.792;4.352;2024-01-15T05:37:44;6.93;;;5.65;;
22468;SDS011;11401;50.792;4.352;2024-01-15T05:40:12;5.78;;;4.53;;
22468;SDS011;11401;50.792;4.352;2024-01-15T05:42:40;5.05;;;4.55;;
22468;SDS011;11401;50.792;4.352;2024-01-15T05:45:08;5.32;;;4.75;;
22468;SDS011;11401;50.792;4.352;2024-01-15T05:47:35;6.20;;;5.10;;
22468;SDS011;11401;50.792;4.352;2024-01-15T05:50:02;6.18;;;4.82;;
22468;SDS011;11401;50.792;4.352;2024-01-15T05:52:30;5.85;;;4.47;;
22468;SDS011;11401;50.792;4.352;2024-01-15T05:54:57;5.63;;;4.45;;
22468;SDS011;11401;50.792;4.352;2024-01-15T05:57:24;5.93;;;4.05;;
22468;SDS011;11401;50.792;4.352;2024-01-15T05:59:51;4.07;;;3.67;;
22468;SDS011;11401;50.792;4.352;2024-01-15T06:02:18;4.38;;;3.70;;
22468;SDS011;11401;50.792;4.352;2024-01-15T06:04:45;3.60;;;3.30;;
22468;SDS011;11401;50.792;4.352;2024-01-15T06:07:12;6.00;;;3.55;;
22468;SDS011;11401;50.792;4.352;2024-01-15T06:09:39;3.63;;;3.33;;
22468;SDS011;11401;50.792;4.352;2024-01-15T06:12:07;3.33;;;3.03;;
22468;SDS011;11401;50.792;4.352;2024-01-15T06:14:34;4.97;;;3.38;;
22468;SDS011;11401;50.792;4.352;2024-01-15T06:17:01;4.10;;;3.40;;
22468;SDS011;11401;50.792;4.352;2024-01-15T06:19:29;4.40;;;3.45;;
22468;SDS011;11401;50.792;4.352;2024-01-15T06:21:56;4.07;;;3.78;;
22468;SDS011;11401;50.792;4.352;2024-01-15T06:24:23;5.47;;;3.17;;
22468;SDS011;11401;50.792;4.352;2024-01-15T06:26:51;6.40;;;3.33;;
22468;SDS011;11401;50.792;4.352;2024-01-15T06:29:18;5.15;;;3.35;;
22468;SDS011;11401;50.792;4.352;2024-01-15T06:31:45;5.20;;;3.50;;
22468;SDS011;11401;50.792;4.352;2024-01-15T06:34:12;6.13;;;3.38;;
22468;SDS011;11401;50.792;4.352;2024-01-15T06:36:42;3.72;;;3.42;;
22468;SDS011;11401;50.792;4.352;2024-01-15T06:39:09;12.88;;;3.60;;
22468;SDS011;11401;50.792;4.352;2024-01-15T06:41:36;6.20;;;3.20;;
22468;SDS011;11401;50.792;4.352;2024-01-15T06:44:10;6.95;;;4.38;;
22468;SDS011;11401;50.792;4.352;2024-01-15T06:46:43;5.18;;;4.53;;
22468;SDS011;11401;50.792;4.352;2024-01-15T06:49:11;6.15;;;3.78;;
22468;SDS011;11401;50.792;4.352;2024-01-15T06:51:40;4.78;;;4.00;;
22468;SDS011;11401;50.792;4.352;2024-01-15T06:54:07;5.38;;;3.50;;
22468;SDS011;11401;50.792;4.352;2024-01-15T06:56:35;5.15;;;3.70;;
22468;SDS011;11401;50.792;4.352;2024-01-15T06:59:02;6.72;;;4.00;;
22468;SDS011;11401;50.792;4.352;2024-01-15T07:01:30;4.43;;;4.00;;
22468;SDS011;11401;50.792;4.352;2024-01-15T07:03:57;4.15;;;3.35;;
22468;SDS011;11401;50.792;4.352;2024-01-15T07:06:24;3.70;;;3.40;;
22468;SDS011;11401;50.792;4.352;2024-01-15T07:08:53;5.78;;;4.00;;
22468;SDS011;11401;50.792;4.352;2024-01-15T07:11:20;6.78;;;3.95;;
22468;SDS011;11401;50.792;4.352;2024-01-15T07:13:49;4.45;;;3.85;;
22468;SDS011;11401;50.792;4.352;2024-01-15T07:16:16;3.67;;;3.38;;
22468;SDS011;11401;50.792;4.352;2024-01-15T07:19:02;3.95;;;3.53;;
22468;SDS011;11401;50.792;4.352;2024-01-15T07:21:29;6.05;;;4.10;;
22468;SDS011;11401;50.792;4.352;2024-01-15T07:23:57;7.20;;;4.10;;
22468;SDS011;11401;50.792;4.352;2024-01-15T07:26:24;5.25;;;3.75;;
22468;SDS011;11401;50.792;4.352;2024-01-15T07:28:51;5.32;;;4.28;;
22468;SDS011;11401;50.792;4.352;2024-01-15T07:31:19;3.92;;;3.63;;
22468;SDS011;11401;50.792;4.352;2024-01-15T07:33:46;7.43;;;3.88;;
22468;SDS011;11401;50.792;4.352;2024-01-15T07:36:13;4.10;;;3.70;;
22468;SDS011;11401;50.792;4.352;2024-01-15T07:38:42;4.50;;;3.83;;
22468;SDS011;11401;50.792;4.352;2024-01-15T07:41:09;4.18;;;3.75;;
22468;SDS011;11401;50.792;4.352;2024-01-15T07:43:37;3.65;;;3.33;;
22468;SDS011;11401;50.792;4.352;2024-01-15T07:46:05;4.45;;;3.40;;
22468;SDS011;11401;50.792;4.352;2024-01-15T07:48:33;6.22;;;3.65;;
22468;SDS011;11401;50.792;4.352;2024-01-15T07:51:01;5.03;;;3.88;;
22468;SDS011;11401;50.792;4.352;2024-01-15T07:53:28;4.53;;;3.90;;
22468;SDS011;11401;50.792;4.352;2024-01-15T07:55:55;4.60;;;3.60;;
22468;SDS011;11401;50.792;4.352;2024-01-15T07:58:23;5.63;;;3.53;;
22468;SDS011;11401;50.792;4.352;2024-01-15T08:00:50;7.32;;;3.90;;
22468;SDS011;11401;50.792;4.352;2024-01-15T08:03:18;4.18;;;3.78;;
22468;SDS011;11401;50.792;4.352;2024-01-15T08:05:45;4.63;;;3.90;;
22468;SDS011;11401;50.792;4.352;2024-01-15T08:08:13;6.07;;;3.75;;
22468;SDS011;11401;50.792;4.352;2024-01-15T08:10:40;6.55;;;4.30;;
22468;SDS011;11401;50.792;4.352;2024-01-15T08:13:07;4.50;;;3.65;;
22468;SDS011;11401;50.792;4.352;2024-01-15T08:15:35;6.47;;;3.80;;
22468;SDS011;11401;50.792;4.352;2024-01-15T08:18:03;6.40;;;4.50;;
22468;SDS011;11401;50.792;4.352;2024-01-15T08:20:31;4.40;;;3.75;;
22468;SDS011;11401;50.792;4.352;2024-01-15T08:22:59;5.85;;;3.95;;
22468;SDS011;11401;50.792;4.352;2024-01-15T08:25:26;4.80;;;3.78;;
22468;SDS011;11401;50.792;4.352;2024-01-15T08:27:53;4.72;;;3.67;;
22468;SDS011;11401;50.792;4.352;2024-01-15T08:30:20;3.47;;;3.17;;
22468;SDS011;11401;50.792;4.352;2024-01-15T08:32:48;5.35;;;3.70;;
22468;SDS011;11401;50.792;4.352;2024-01-15T08:35:15;4.30;;;3.35;;
22468;SDS011;11401;50.792;4.352;2024-01-15T08:37:42;3.63;;;3.25;;
22468;SDS011;11401;50.792;4.352;2024-01-15T08:40:09;4.13;;;3.17;;
22468;SDS011;11401;50.792;4.352;2024-01-15T08:42:37;6.93;;;3.03;;
22468;SDS011;11401;50.792;4.352;2024-01-15T08:45:04;6.57;;;3.35;;
22468;SDS011;11401;50.792;4.352;2024-01-15T08:47:31;6.63;;;3.88;;
22468;SDS011;11401;50.792;4.352;2024-01-15T08:49:58;7.90;;;3.47;;
22468;SDS011;11401;50.792;4.352;2024-01-15T08:52:25;3.30;;;3.00;;
22468;SDS011;11401;50.792;4.352;2024-01-15T08:54:54;4.60;;;3.03;;
22468;SDS011;11401;50.792;4.352;2024-01-15T08:57:22;2.88;;;2.60;;
22468;SDS011;11401;50.792;4.352;2024-01-15T08:59:49;3.13;;;2.75;;
22468;SDS011;11401;50.792;4.352;2024-01-15T09:02:19;3.33;;;2.90;;
22468;SDS011;11401;50.792;4.352;2024-01-15T09:04:47;4.93;;;2.97;;
22468;SDS011;11401;50.792;4.352;2024-01-15T09:07:14;3.83;;;2.67;;
22468;SDS011;11401;50.792;4.352;2024-01-15T09:09:41;4.35;;;3.13;;
22468;SDS011;11401;50.792;4.352;2024-01-15T09:12:09;2.78;;;2.58;;
22468;SDS011;11401;50.792;4.352;2024-01-15T09:14:36;6.95;;;2.90;;
22468;SDS011;11401;50.792;4.352;2024-01-15T09:17:06;3.50;;;2.80;;
22468;SDS011;11401;50.792;4.352;2024-01-15T09:19:33;3.35;;;3.00;;
22468;SDS011;11401;50.792;4.352;2024-01-15T09:22:00;4.13;;;2.92;;
22468;SDS011;11401;50.792;4.352;2024-01-15T09:24:27;4.03;;;2.38;;
22468;SDS011;11401;50.792;4.352;2024-01-15T09:26:55;4.78;;;2.08;;
22468;SDS011;11401;50.792;4.352;2024-01-15T09:29:22;5.15;;;2.72;;
22468;SDS011;11401;50.792;4.352;2024-01-15T09:31:50;5.50;;;2.60;;
22468;SDS011;11401;50.792;4.352;2024-01-15T09:34:19;5.30;;;2.80;;
22468;SDS011;11401;50.792;4.352;2024-01-15T09:36:46;3.63;;;3.33;;
22468;SDS011;11401;50.792;4.352;2024-01-15T09:39:15;5.38;;;2.70;;
22468;SDS011;11401;50.792;4.352;2024-01-15T09:41:42;4.63;;;2.90;;
22468;SDS011;11401;50.792;4.352;2024-01-15T09:44:11;7.22;;;3.80;;
22468;SDS011;11401;50.792;4.352;2024-01-15T09:46:39;6.65;;;2.75;;
22468;SDS011;11401;50.792;4.352;2024-01-15T09:49:07;4.40;;;2.50;;
22468;SDS011;11401;50.792;4.352;2024-01-15T09:51:35;2.92;;;2.40;;
22468;SDS011;11401;50.792;4.352;2024-01-15T09:54:03;5.25;;;2.97;;
22468;SDS011;11401;50.792;4.352;2024-01-15T09:56:30;5.30;;;2.83;;
22468;SDS011;11401;50.792;4.352;2024-01-15T09:58:58;5.30;;;2.35;;
22468;SDS011;11401;50.792;4.352;2024-01-15T10:01:28;4.65;;;2.40;;
22468;SDS011;11401;50.792;4.352;2024-01-15T10:03:56;3.50;;;2.40;;
22468;SDS011;11401;50.792;4.352;2024-01-15T10:06:23;4.35;;;2.28;;
22468;SDS011;11401;50.792;4.352;2024-01-15T10:08:50;6.50;;;2.55;;
22468;SDS011;11401;50.792;4.352;2024-01-15T10:11:18;4.45;;;2.53;;
22468;SDS011;11401;50.792;4.352;2024-01-15T10:13:46;4.38;;;2.45;;
22468;SDS011;11401;50.792;4.352;2024-01-15T10:16:16;3.72;;;2.40;;
22468;SDS011;11401;50.792;4.352;2024-01-15T10:18:44;5.90;;;2.33;;
22468;SDS011;11401;50.792;4.352;2024-01-15T10:21:11;3.97;;;2.63;;
22468;SDS011;11401;50.792;4.352;2024-01-15T10:23:38;7.43;;;3.05;;
22468;SDS011;11401;50.792;4.352;2024-01-15T10:26:05;3.58;;;2.10;;
22468;SDS011;11401;50.792;4.352;2024-01-15T10:28:32;3.05;;;2.47;;
22468;SDS011;11401;50.792;4.352;2024-01-15T10:31:00;4.20;;;2.45;;
22468;SDS011;11401;50.792;4.352;2024-01-15T10:33:28;4.47;;;2.53;;
22468;SDS011;11401;50.792;4.352;2024-01-15T10:35:56;3.63;;;2.40;;
22468;SDS011;11401;50.792;4.352;2024-01-15T10:38:25;3.92;;;2.33;;
22468;SDS011;11401;50.792;4.352;2024-01-15T10:40:53;2.45;;;1.88;;
22468;SDS011;11401;50.792;4.352;2024-01-15T10:43:22;5.80;;;2.85;;
22468;SDS011;11401;50.792;4.352;2024-01-15T10:45:54;7.43;;;2.58;;
22468;SDS011;11401;50.792;4.352;2024-01-15T10:48:22;4.25;;;2.67;;
22468;SDS011;11401;50.792;4.352;2024-01-15T10:50:49;3.75;;;2.40;;
22468;SDS011;11401;50.792;4.352;2024-01-15T10:53:17;3.95;;;2.50;;
22468;SDS011;11401;50.792;4.352;2024-01-15T10:55:44;4.88;;;2.65;;
22468;SDS011;11401;50.792;4.352;2024-01-15T10:58:15;6.05;;;2.42;;
22468;SDS011;11401;50.792;4.352;2024-01-15T11:00:44;4.93;;;2.45;;
22468;SDS011;11401;50.792;4.352;2024-01-15T11:03:11;1.75;;;1.65;;
22468;SDS011;11401;50.792;4.352;2024-01-15T11:05:41;5.25;;;2.05;;
22468;SDS011;11401;50.792;4.352;2024-01-15T11:08:09;4.65;;;2.30;;
22468;SDS011;11401;50.792;4.352;2024-01-15T11:13:14;3.50;;;2.53;;
22468;SDS011;11401;50.792;4.352;2024-01-15T11:16:00;3.28;;;2.20;;
22468;SDS011;11401;50.792;4.352;2024-01-15T11:18:28;4.15;;;2.15;;
22468;SDS011;11401;50.792;4.352;2024-01-15T11:23:46;4.45;;;2.65;;
22468;SDS011;11401;50.792;4.352;2024-01-15T11:29:28;3.65;;;2.35;;
22468;SDS011;11401;50.792;4.352;2024-01-15T11:31:58;4.28;;;2.15;;
22468;SDS011;11401;50.792;4.352;2024-01-15T11:37:29;4.75;;;2.08;;
22468;SDS011;11401;50.792;4.352;2024-01-15T11:40:36;6.57;;;2.50;;
22468;SDS011;11401;50.792;4.352;2024-01-15T11:43:05;5.20;;;2.65;;
22468;SDS011;11401;50.792;4.352;2024-01-15T11:45:36;3.88;;;1.92;;
22468;SDS011;11401;50.792;4.352;2024-01-15T11:50:43;3.28;;;2.03;;
22468;SDS011;11401;50.792;4.352;2024-01-15T11:55:45;4.35;;;2.20;;
22468;SDS011;11401;50.792;4.352;2024-01-15T11:58:12;3.25;;;2.20;;
22468;SDS011;11401;50.792;4.352;2024-01-15T12:00:44;4.35;;;2.03;;
22468;SDS011;11401;50.792;4.352;2024-01-15T12:03:22;4.60;;;1.95;;
22468;SDS011;11401;50.792;4.352;2024-01-15T12:05:52;6.47;;;2.20;;
22468;SDS011;11401;50.792;4.352;2024-01-15T12:08:22;3.13;;;2.13;;
22468;SDS011;11401;50.792;4.352;2024-01-15T12:10:50;4.32;;;1.80;;
22468;SDS011;11401;50.792;4.352;2024-01-15T12:13:18;5.40;;;1.77;;
22468;SDS011;11401;50.792;4.352;2024-01-15T12:15:46;2.28;;;1.90;;
22468;SDS011;11401;50.792;4.352;2024-01-15T12:18:15;3.88;;;2.05;;
22468;SDS011;11401;50.792;4.352;2024-01-15T12:20:45;3.55;;;2.13;;
22468;SDS011;11401;50.792;4.352;2024-01-15T12:23:14;1.80;;;1.70;;
22468;SDS011;11401;50.792;4.352;2024-01-15T12:25:43;2.97;;;1.90;;
22468;SDS011;11401;50.792;4.352;2024-01-15T12:28:10;3.78;;;1.90;;
22468;SDS011;11401;50.792;4.352;2024-01-15T12:30:38;2.80;;;1.88;;
22468;SDS011;11401;50.792;4.352;2024-01-15T12:33:06;2.65;;;1.80;;
22468;SDS011;11401;50.792;4.352;2024-01-15T12:35:36;5.30;;;2.05;;
22468;SDS011;11401;50.792;4.352;2024-01-15T12:38:03;2.72;;;1.90;;
22468;SDS011;11401;50.792;4.352;2024-01-15T12:40:32;3.90;;;2.05;;
22468;SDS011;11401;50.792;4.352;2024-01-15T12:43:02;5.90;;;2.17;;
22468;SDS011;11401;50.792;4.352;2024-01-15T12:45:29;2.92;;;1.83;;
22468;SDS011;11401;50.792;4.352;2024-01-15T12:47:58;4.90;;;2.00;;
22468;SDS011;11401;50.792;4.352;2024-01-15T12:50:26;5.60;;;2.03;;
22468;SDS011;11401;50.792;4.352;2024-01-15T12:52:53;4.82;;;2.17;;
22468;SDS011;11401;50.792;4.352;2024-01-15T12:55:20;2.60;;;1.70;;
22468;SDS011;11401;50.792;4.352;2024-01-15T12:57:47;2.42;;;1.77;;
22468;SDS011;11401;50.792;4.352;2024-01-15T13:00:20;4.82;;;1.80;;
22468;SDS011;11401;50.792;4.352;2024-01-15T13:02:47;6.28;;;2.03;;
22468;SDS011;11401;50.792;4.352;2024-01-15T13:05:16;6.72;;;1.90;;
22468;SDS011;11401;50.792;4.352;2024-01-15T13:07:44;4.93;;;2.13;;
22468;SDS011;11401;50.792;4.352;2024-01-15T13:10:11;4.78;;;1.80;;
22468;SDS011;11401;50.792;4.352;2024-01-15T13:12:39;3.70;;;1.85;;
22468;SDS011;11401;50.792;4.352;2024-01-15T13:15:08;3.97;;;2.03;;
22468;SDS011;11401;50.792;4.352;2024-01-15T13:17:41;3.22;;;1.75;;
22468;SDS011;11401;50.792;4.352;2024-01-15T13:20:10;3.95;;;1.95;;
22468;SDS011;11401;50.792;4.352;2024-01-15T13:22:39;3.33;;;1.88;;
22468;SDS011;11401;50.792;4.352;2024-01-15T13:25:07;7.18;;;2.10;;
22468;SDS011;11401;50.792;4.352;2024-01-15T13:27:36;3.75;;;1.70;;
22468;SDS011;11401;50.792;4.352;2024-01-15T13:30:05;3.53;;;1.65;;
22468;SDS011;11401;50.792;4.352;2024-01-15T13:32:34;3.13;;;1.80;;
22468;SDS011;11401;50.792;4.352;2024-01-15T13:35:02;5.47;;;2.00;;
22468;SDS011;11401;50.792;4.352;2024-01-15T13:37:32;4.38;;;1.95;;
22468;SDS011;11401;50.792;4.352;2024-01-15T13:40:00;4.68;;;1.75;;
22468;SDS011;11401;50.792;4.352;2024-01-15T13:42:27;4.50;;;2.05;;
22468;SDS011;11401;50.792;4.352;2024-01-15T13:44:54;2.53;;;1.52;;
22468;SDS011;11401;50.792;4.352;2024-01-15T13:47:21;5.57;;;2.00;;
22468;SDS011;11401;50.792;4.352;2024-01-15T13:49:50;5.40;;;1.65;;
22468;SDS011;11401;50.792;4.352;2024-01-15T13:52:17;3.88;;;2.10;;
22468;SDS011;11401;50.792;4.352;2024-01-15T13:54:44;5.60;;;2.00;;
22468;SDS011;11401;50.792;4.352;2024-01-15T13:57:16;1.95;;;1.70;;
22468;SDS011;11401;50.792;4.352;2024-01-15T13:59:44;6.47;;;1.90;;
22468;SDS011;11401;50.792;4.352;2024-01-15T14:02:11;5.20;;;1.92;;
22468;SDS011;11401;50.792;4.352;2024-01-15T14:04:42;2.25;;;1.58;;
22468;SDS011;11401;50.792;4.352;2024-01-15T14:07:10;2.83;;;1.70;;
22468;SDS011;11401;50.792;4.352;2024-01-15T14:09:37;4.85;;;2.10;;
22468;SDS011;11401;50.792;4.352;2024-01-15T14:12:04;4.13;;;1.70;;
22468;SDS011;11401;50.792;4.352;2024-01-15T14:14:33;3.75;;;2.15;;
22468;SDS011;11401;50.792;4.352;2024-01-15T14:17:00;3.47;;;1.83;;
22468;SDS011;11401;50.792;4.352;2024-01-15T14:19:28;5.68;;;1.80;;
22468;SDS011;11401;50.792;4.352;2024-01-15T14:21:55;3.42;;;2.03;;
22468;SDS011;11401;50.792;4.352;2024-01-15T14:24:22;5.55;;;2.22;;
22468;SDS011;11401;50.792;4.352;2024-01-15T14:26:49;6.30;;;2.20;;
22468;SDS011;11401;50.792;4.352;2024-01-15T14:29:16;4.70;;;1.83;;
22468;SDS011;11401;50.792;4.352;2024-01-15T14:31:47;2.65;;;2.00;;
22468;SDS011;11401;50.792;4.352;2024-01-15T14:34:16;7.60;;;2.20;;
22468;SDS011;11401;50.792;4.352;2024-01-15T14:36:44;2.22;;;2.03;;
22468;SDS011;11401;50.792;4.352;2024-01-15T14:39:13;4.20;;;1.90;;
22468;SDS011;11401;50.792;4.352;2024-01-15T14:41:40;5.90;;;2.10;;
22468;SDS011;11401;50.792;4.352;2024-01-15T14:44:07;5.25;;;1.70;;
22468;SDS011;11401;50.792;4.352;2024-01-15T14:46:34;3.17;;;1.90;;
22468;SDS011;11401;50.792;4.352;2024-01-15T14:49:01;1.98;;;1.65;;
22468;SDS011;11401;50.792;4.352;2024-01-15T14:51:28;3.40;;;1.80;;
22468;SDS011;11401;50.792;4.352;2024-01-15T14:53:56;3.25;;;2.20;;
22468;SDS011;11401;50.792;4.352;2024-01-15T14:56:23;5.57;;;2.45;;
22468;SDS011;11401;50.792;4.352;2024-01-15T14:58:50;1.90;;;1.50;;
22468;SDS011;11401;50.792;4.352;2024-01-15T15:01:17;4.43;;;1.88;;
22468;SDS011;11401;50.792;4.352;2024-01-15T15:03:44;4.28;;;2.00;;